sensor_id;sensor_type;location;lat;lon;timestamp;P1;durP1;ratioP1;P2;durP2;ratioP2
61152;SDS011;47030;50.732;4.286;2022-07-18T00:01:51;3.15;;;2.10;;
61152;SDS011;47030;50.732;4.286;2022-07-18T00:04:17;3.50;;;2.12;;
61152;SDS011;47030;50.732;4.286;2022-07-18T00:06:43;2.85;;;1.90;;
61152;SDS011;47030;50.732;4.286;2022-07-18T00:09:09;3.78;;;2.10;;
61152;SDS011;47030;50.732;4.286;2022-07-18T00:11:34;3.65;;;1.98;;
61152;SDS011;47030;50.732;4.286;2022-07-18T00:14:00;2.65;;;1.92;;
61152;SDS011;47030;50.732;4.286;2022-07-18T00:16:26;2.25;;;1.90;;
61152;SDS011;47030;50.732;4.286;2022-07-18T00:18:52;4.28;;;2.33;;
61152;SDS011;47030;50.732;4.286;2022-07-18T00:21:19;3.83;;;2.12;;
61152;SDS011;47030;50.732;4.286;2022-07-18T00:23:46;3.55;;;1.92;;
61152;SDS011;47030;50.732;4.286;2022-07-18T00:26:11;6.55;;;2.40;;
61152;SDS011;47030;50.732;4.286;2022-07-18T00:28:37;4.00;;;2.00;;
61152;SDS011;47030;50.732;4.286;2022-07-18T00:31:03;5.45;;;2.28;;
61152;SDS011;47030;50.732;4.286;2022-07-18T00:33:29;2.92;;;2.30;;
61152;SDS011;47030;50.732;4.286;2022-07-18T00:35:54;3.78;;;2.10;;
61152;SDS011;47030;50.732;4.286;2022-07-18T00:38:20;4.22;;;2.45;;
61152;SDS011;47030;50.732;4.286;2022-07-18T00:40:46;4.90;;;2.37;;
61152;SDS011;47030;50.732;4.286;2022-07-18T00:43:12;3.33;;;2.30;;
61152;SDS011;47030;50.732;4.286;2022-07-18T00:45:39;5.35;;;2.17;;
61152;SDS011;47030;50.732;4.286;2022-07-18T00:48:09;3.37;;;2.30;;
61152;SDS011;47030;50.732;4.286;2022-07-18T00:50:35;4.65;;;2.78;;
61152;SDS011;47030;50.732;4.286;2022-07-18T00:53:00;4.55;;;2.33;;
61152;SDS011;47030;50.732;4.286;2022-07-18T00:55:26;5.55;;;2.40;;
61152;SDS011;47030;50.732;4.286;2022-07-18T00:57:52;3.17;;;2.00;;
61152;SDS011;47030;50.732;4.286;2022-07-18T01:00:20;4.18;;;2.00;;
61152;SDS011;47030;50.732;4.286;2022-07-18T01:03:05;4.28;;;2.35;;
61152;SDS011;47030;50.732;4.286;2022-07-18T01:05:31;2.65;;;1.85;;
61152;SDS011;47030;50.732;4.286;2022-07-18T01:07:56;2.47;;;2.10;;
61152;SDS011;47030;50.732;4.286;2022-07-18T01:10:22;3.47;;;2.17;;
61152;SDS011;47030;50.732;4.286;2022-07-18T01:12:48;4.80;;;2.33;;
61152;SDS011;47030;50.732;4.286;2022-07-18T01:15:14;4.37;;;2.20;;
61152;SDS011;47030;50.732;4.286;2022-07-18T01:17:39;3.80;;;2.25;;
61152;SDS011;47030;50.732;4.286;2022-07-18T01:20:05;4.75;;;2.47;;
61152;SDS011;47030;50.732;4.286;2022-07-18T01:22:32;2.53;;;2.12;;
61152;SDS011;47030;50.732;4.286;2022-07-18T01:24:58;5.47;;;2.42;;
61152;SDS011;47030;50.732;4.286;2022-07-18T01:27:24;6.87;;;2.37;;
61152;SDS011;47030;50.732;4.286;2022-07-18T01:29:51;4.47;;;2.37;;
61152;SDS011;47030;50.732;4.286;2022-07-18T01:32:17;4.90;;;2.50;;
61152;SDS011;47030;50.732;4.286;2022-07-18T01:34:45;3.55;;;2.30;;
61152;SDS011;47030;50.732;4.286;2022-07-18T01:37:12;5.97;;;2.40;;
61152;SDS011;47030;50.732;4.286;2022-07-18T01:39:38;4.80;;;2.37;;
61152;SDS011;47030;50.732;4.286;2022-07-18T01:42:06;3.58;;;2.35;;
61152;SDS011;47030;50.732;4.286;2022-07-18T01:44:33;4.30;;;2.30;;
61152;SDS011;47030;50.732;4.286;2022-07-18T01:47:00;4.03;;;2.67;;
61152;SDS011;47030;50.732;4.286;2022-07-18T01:49:26;5.25;;;2.90;;
61152;SDS011;47030;50.732;4.286;2022-07-18T01:51:54;5.40;;;2.28;;
61152;SDS011;47030;50.732;4.286;2022-07-18T01:54:21;4.85;;;2.30;;
61152;SDS011;47030;50.732;4.286;2022-07-18T01:56:49;4.35;;;2.08;;
61152;SDS011;47030;50.732;4.286;2022-07-18T01:59:15;3.80;;;2.50;;
61152;SDS011;47030;50.732;4.286;2022-07-18T02:01:41;3.62;;;2.33;;
61152;SDS011;47030;50.732;4.286;2022-07-18T02:04:07;4.50;;;2.53;;
61152;SDS011;47030;50.732;4.286;2022-07-18T02:06:33;4.10;;;2.10;;
61152;SDS011;47030;50.732;4.286;2022-07-18T02:08:59;5.35;;;2.30;;
61152;SDS011;47030;50.732;4.286;2022-07-18T02:11:24;4.25;;;2.65;;
61152;SDS011;47030;50.732;4.286;2022-07-18T02:13:50;7.82;;;1.92;;
61152;SDS011;47030;50.732;4.286;2022-07-18T02:16:16;3.53;;;1.98;;
61152;SDS011;47030;50.732;4.286;2022-07-18T02:18:42;5.15;;;2.30;;
61152;SDS011;47030;50.732;4.286;2022-07-18T02:21:08;4.82;;;2.10;;
61152;SDS011;47030;50.732;4.286;2022-07-18T02:23:34;4.50;;;2.28;;
61152;SDS011;47030;50.732;4.286;2022-07-18T02:26:00;5.00;;;2.15;;
61152;SDS011;47030;50.732;4.286;2022-07-18T02:28:26;3.55;;;2.10;;
61152;SDS011;47030;50.732;4.286;2022-07-18T02:30:52;4.07;;;2.40;;
61152;SDS011;47030;50.732;4.286;2022-07-18T02:33:18;4.30;;;2.33;;
61152;SDS011;47030;50.732;4.286;2022-07-18T02:35:44;6.53;;;2.40;;
61152;SDS011;47030;50.732;4.286;2022-07-18T02:38:10;3.08;;;2.03;;
61152;SDS011;47030;50.732;4.286;2022-07-18T02:40:36;6.22;;;2.67;;
61152;SDS011;47030;50.732;4.286;2022-07-18T02:43:02;4.85;;;2.60;;
61152;SDS011;47030;50.732;4.286;2022-07-18T02:45:28;4.32;;;2.40;;
61152;SDS011;47030;50.732;4.286;2022-07-18T02:47:54;4.22;;;2.40;;
61152;SDS011;47030;50.732;4.286;2022-07-18T02:50:20;3.97;;;2.10;;
61152;SDS011;47030;50.732;4.286;2022-07-18T02:52:46;2.95;;;2.17;;
61152;SDS011;47030;50.732;4.286;2022-07-18T02:55:12;8.98;;;2.40;;
61152;SDS011;47030;50.732;4.286;2022-07-18T02:57:39;4.60;;;2.35;;
61152;SDS011;47030;50.732;4.286;2022-07-18T03:00:07;5.05;;;2.70;;
61152;SDS011;47030;50.732;4.286;2022-07-18T03:02:35;5.28;;;2.75;;
61152;SDS011;47030;50.732;4.286;2022-07-18T03:05:01;4.15;;;2.25;;
61152;SDS011;47030;50.732;4.286;2022-07-18T03:07:28;4.90;;;2.40;;
61152;SDS011;47030;50.732;4.286;2022-07-18T03:09:54;5.65;;;2.53;;
61152;SDS011;47030;50.732;4.286;2022-07-18T03:12:20;7.55;;;2.60;;
61152;SDS011;47030;50.732;4.286;2022-07-18T03:14:46;4.15;;;2.30;;
61152;SDS011;47030;50.732;4.286;2022-07-18T03:17:12;6.32;;;2.33;;
61152;SDS011;47030;50.732;4.286;2022-07-18T03:19:37;5.70;;;2.25;;
61152;SDS011;47030;50.732;4.286;2022-07-18T03:22:04;8.68;;;2.33;;
61152;SDS011;47030;50.732;4.286;2022-07-18T03:24:30;6.55;;;2.37;;
61152;SDS011;47030;50.732;4.286;2022-07-18T03:26:56;3.15;;;2.28;;
61152;SDS011;47030;50.732;4.286;2022-07-18T03:29:22;4.03;;;2.45;;
61152;SDS011;47030;50.732;4.286;2022-07-18T03:31:49;6.12;;;2.60;;
61152;SDS011;47030;50.732;4.286;2022-07-18T03:34:14;4.45;;;2.50;;
61152;SDS011;47030;50.732;4.286;2022-07-18T03:36:40;4.18;;;2.35;;
61152;SDS011;47030;50.732;4.286;2022-07-18T03:39:07;4.80;;;2.35;;
61152;SDS011;47030;50.732;4.286;2022-07-18T03:41:33;4.35;;;2.50;;
61152;SDS011;47030;50.732;4.286;2022-07-18T03:44:00;4.22;;;2.37;;
61152;SDS011;47030;50.732;4.286;2022-07-18T03:46:26;3.05;;;2.00;;
61152;SDS011;47030;50.732;4.286;2022-07-18T03:48:52;4.07;;;2.37;;
61152;SDS011;47030;50.732;4.286;2022-07-18T03:51:18;3.42;;;2.20;;
61152;SDS011;47030;50.732;4.286;2022-07-18T03:53:44;3.37;;;2.42;;
61152;SDS011;47030;50.732;4.286;2022-07-18T03:56:09;4.20;;;2.30;;
61152;SDS011;47030;50.732;4.286;2022-07-18T03:58:35;7.20;;;2.28;;
61152;SDS011;47030;50.732;4.286;2022-07-18T04:01:02;4.15;;;2.17;;
61152;SDS011;47030;50.732;4.286;2022-07-18T04:03:28;4.35;;;2.55;;
61152;SDS011;47030;50.732;4.286;2022-07-18T04:05:54;5.00;;;2.50;;
61152;SDS011;47030;50.732;4.286;2022-07-18T04:08:20;4.18;;;2.37;;
61152;SDS011;47030;50.732;4.286;2022-07-18T04:10:46;4.25;;;2.45;;
61152;SDS011;47030;50.732;4.286;2022-07-18T04:13:11;4.80;;;2.62;;
61152;SDS011;47030;50.732;4.286;2022-07-18T04:15:37;6.37;;;2.42;;
61152;SDS011;47030;50.732;4.286;2022-07-18T04:18:04;4.93;;;2.40;;
61152;SDS011;47030;50.732;4.286;2022-07-18T04:20:31;5.95;;;2.08;;
61152;SDS011;47030;50.732;4.286;2022-07-18T04:22:58;4.57;;;2.42;;
61152;SDS011;47030;50.732;4.286;2022-07-18T04:25:27;4.37;;;2.83;;
61152;SDS011;47030;50.732;4.286;2022-07-18T04:27:58;4.72;;;2.45;;
61152;SDS011;47030;50.732;4.286;2022-07-18T04:30:24;4.53;;;2.37;;
61152;SDS011;47030;50.732;4.286;2022-07-18T04:32:51;4.62;;;2.40;;
61152;SDS011;47030;50.732;4.286;2022-07-18T04:35:18;5.53;;;2.25;;
61152;SDS011;47030;50.732;4.286;2022-07-18T04:37:44;6.45;;;2.60;;
61152;SDS011;47030;50.732;4.286;2022-07-18T04:40:10;3.03;;;2.28;;
61152;SDS011;47030;50.732;4.286;2022-07-18T04:42:36;6.53;;;2.60;;
61152;SDS011;47030;50.732;4.286;2022-07-18T04:45:02;5.25;;;2.42;;
61152;SDS011;47030;50.732;4.286;2022-07-18T04:47:30;4.95;;;2.00;;
61152;SDS011;47030;50.732;4.286;2022-07-18T04:49:56;6.62;;;2.87;;
61152;SDS011;47030;50.732;4.286;2022-07-18T04:52:22;6.30;;;2.40;;
61152;SDS011;47030;50.732;4.286;2022-07-18T04:54:48;5.20;;;2.28;;
61152;SDS011;47030;50.732;4.286;2022-07-18T04:57:15;7.00;;;2.47;;
61152;SDS011;47030;50.732;4.286;2022-07-18T04:59:41;3.42;;;2.37;;
61152;SDS011;47030;50.732;4.286;2022-07-18T05:02:08;4.70;;;2.05;;
61152;SDS011;47030;50.732;4.286;2022-07-18T05:04:34;3.83;;;2.25;;
61152;SDS011;47030;50.732;4.286;2022-07-18T05:07:01;6.25;;;2.75;;
61152;SDS011;47030;50.732;4.286;2022-07-18T05:09:27;3.75;;;2.33;;
61152;SDS011;47030;50.732;4.286;2022-07-18T05:11:53;6.68;;;2.60;;
61152;SDS011;47030;50.732;4.286;2022-07-18T05:14:19;3.67;;;2.20;;
61152;SDS011;47030;50.732;4.286;2022-07-18T05:16:46;4.47;;;2.30;;
61152;SDS011;47030;50.732;4.286;2022-07-18T05:19:12;6.40;;;2.33;;
61152;SDS011;47030;50.732;4.286;2022-07-18T05:21:37;4.70;;;2.10;;
61152;SDS011;47030;50.732;4.286;2022-07-18T05:24:03;7.30;;;2.30;;
61152;SDS011;47030;50.732;4.286;2022-07-18T05:26:29;5.97;;;2.47;;
61152;SDS011;47030;50.732;4.286;2022-07-18T05:28:55;6.18;;;2.50;;
61152;SDS011;47030;50.732;4.286;2022-07-18T05:31:20;7.32;;;2.37;;
61152;SDS011;47030;50.732;4.286;2022-07-18T05:33:46;4.20;;;2.40;;
61152;SDS011;47030;50.732;4.286;2022-07-18T05:36:12;4.20;;;2.17;;
61152;SDS011;47030;50.732;4.286;2022-07-18T05:38:37;6.18;;;2.30;;
61152;SDS011;47030;50.732;4.286;2022-07-18T05:41:03;5.45;;;2.35;;
61152;SDS011;47030;50.732;4.286;2022-07-18T05:43:29;4.60;;;2.20;;
61152;SDS011;47030;50.732;4.286;2022-07-18T05:45:54;8.00;;;2.80;;
61152;SDS011;47030;50.732;4.286;2022-07-18T05:48:20;6.47;;;2.58;;
61152;SDS011;47030;50.732;4.286;2022-07-18T05:50:46;4.18;;;2.33;;
61152;SDS011;47030;50.732;4.286;2022-07-18T05:53:12;6.15;;;2.70;;
61152;SDS011;47030;50.732;4.286;2022-07-18T05:55:38;5.95;;;2.33;;
61152;SDS011;47030;50.732;4.286;2022-07-18T05:58:03;5.68;;;2.75;;
61152;SDS011;47030;50.732;4.286;2022-07-18T06:00:29;4.93;;;2.97;;
61152;SDS011;47030;50.732;4.286;2022-07-18T06:02:55;4.90;;;2.50;;
61152;SDS011;47030;50.732;4.286;2022-07-18T06:05:21;5.07;;;2.62;;
61152;SDS011;47030;50.732;4.286;2022-07-18T06:07:47;6.28;;;2.78;;
61152;SDS011;47030;50.732;4.286;2022-07-18T06:10:13;5.95;;;2.62;;
61152;SDS011;47030;50.732;4.286;2022-07-18T06:12:38;6.20;;;2.55;;
61152;SDS011;47030;50.732;4.286;2022-07-18T06:15:05;6.15;;;2.87;;
61152;SDS011;47030;50.732;4.286;2022-07-18T06:17:32;6.50;;;2.50;;
61152;SDS011;47030;50.732;4.286;2022-07-18T06:19:58;6.47;;;3.17;;
61152;SDS011;47030;50.732;4.286;2022-07-18T06:22:24;5.15;;;2.58;;
61152;SDS011;47030;50.732;4.286;2022-07-18T06:24:49;5.93;;;2.70;;
61152;SDS011;47030;50.732;4.286;2022-07-18T06:27:18;4.78;;;2.83;;
61152;SDS011;47030;50.732;4.286;2022-07-18T06:29:44;6.53;;;2.83;;
61152;SDS011;47030;50.732;4.286;2022-07-18T06:32:09;9.48;;;2.92;;
61152;SDS011;47030;50.732;4.286;2022-07-18T06:34:35;4.40;;;2.50;;
61152;SDS011;47030;50.732;4.286;2022-07-18T06:37:01;7.03;;;2.97;;
61152;SDS011;47030;50.732;4.286;2022-07-18T06:39:26;5.37;;;2.83;;
61152;SDS011;47030;50.732;4.286;2022-07-18T06:41:52;4.60;;;2.97;;
61152;SDS011;47030;50.732;4.286;2022-07-18T06:44:18;5.12;;;2.28;;
61152;SDS011;47030;50.732;4.286;2022-07-18T06:46:43;5.93;;;2.60;;
61152;SDS011;47030;50.732;4.286;2022-07-18T06:49:09;4.60;;;2.58;;
61152;SDS011;47030;50.732;4.286;2022-07-18T06:51:35;4.30;;;2.92;;
61152;SDS011;47030;50.732;4.286;2022-07-18T06:54:01;3.00;;;2.37;;
61152;SDS011;47030;50.732;4.286;2022-07-18T06:56:27;4.50;;;2.50;;
61152;SDS011;47030;50.732;4.286;2022-07-18T06:58:52;5.35;;;2.50;;
61152;SDS011;47030;50.732;4.286;2022-07-18T07:01:19;5.57;;;2.30;;
61152;SDS011;47030;50.732;4.286;2022-07-18T07:03:45;4.87;;;2.80;;
61152;SDS011;47030;50.732;4.286;2022-07-18T07:06:11;5.35;;;2.92;;
61152;SDS011;47030;50.732;4.286;2022-07-18T07:08:37;5.45;;;2.90;;
61152;SDS011;47030;50.732;4.286;2022-07-18T07:11:03;4.45;;;2.15;;
61152;SDS011;47030;50.732;4.286;2022-07-18T07:13:29;9.82;;;2.70;;
61152;SDS011;47030;50.732;4.286;2022-07-18T07:15:55;3.37;;;2.37;;
61152;SDS011;47030;50.732;4.286;2022-07-18T07:18:21;5.55;;;2.30;;
61152;SDS011;47030;50.732;4.286;2022-07-18T07:20:47;5.10;;;2.85;;
61152;SDS011;47030;50.732;4.286;2022-07-18T07:23:12;5.78;;;2.12;;
61152;SDS011;47030;50.732;4.286;2022-07-18T07:25:38;5.37;;;2.25;;
61152;SDS011;47030;50.732;4.286;2022-07-18T07:28:04;5.68;;;2.47;;
61152;SDS011;47030;50.732;4.286;2022-07-18T07:30:31;2.65;;;2.10;;
61152;SDS011;47030;50.732;4.286;2022-07-18T07:32:58;5.65;;;2.33;;
61152;SDS011;47030;50.732;4.286;2022-07-18T07:35:24;5.03;;;2.10;;
61152;SDS011;47030;50.732;4.286;2022-07-18T07:37:51;2.30;;;1.73;;
61152;SDS011;47030;50.732;4.286;2022-07-18T07:40:19;4.30;;;1.92;;
61152;SDS011;47030;50.732;4.286;2022-07-18T07:42:46;2.92;;;2.08;;
61152;SDS011;47030;50.732;4.286;2022-07-18T07:45:12;3.35;;;1.95;;
61152;SDS011;47030;50.732;4.286;2022-07-18T07:47:39;4.80;;;2.00;;
61152;SDS011;47030;50.732;4.286;2022-07-18T07:50:06;6.47;;;2.15;;
61152;SDS011;47030;50.732;4.286;2022-07-18T07:52:32;2.62;;;1.83;;
61152;SDS011;47030;50.732;4.286;2022-07-18T07:54:59;4.28;;;1.75;;
61152;SDS011;47030;50.732;4.286;2022-07-18T07:57:24;3.15;;;1.70;;
61152;SDS011;47030;50.732;4.286;2022-07-18T07:59:51;4.05;;;1.60;;
61152;SDS011;47030;50.732;4.286;2022-07-18T08:02:17;4.12;;;1.70;;
61152;SDS011;47030;50.732;4.286;2022-07-18T08:04:43;4.20;;;1.70;;
61152;SDS011;47030;50.732;4.286;2022-07-18T08:07:09;4.72;;;2.00;;
61152;SDS011;47030;50.732;4.286;2022-07-18T08:09:36;1.87;;;1.45;;
61152;SDS011;47030;50.732;4.286;2022-07-18T08:12:02;6.82;;;1.75;;
61152;SDS011;47030;50.732;4.286;2022-07-18T08:14:29;2.78;;;1.92;;
61152;SDS011;47030;50.732;4.286;2022-07-18T08:16:54;3.90;;;1.60;;
61152;SDS011;47030;50.732;4.286;2022-07-18T08:19:20;3.37;;;1.35;;
61152;SDS011;47030;50.732;4.286;2022-07-18T08:21:46;2.95;;;1.50;;
61152;SDS011;47030;50.732;4.286;2022-07-18T08:24:11;2.65;;;1.73;;
61152;SDS011;47030;50.732;4.286;2022-07-18T08:26:37;5.50;;;1.70;;
61152;SDS011;47030;50.732;4.286;2022-07-18T08:29:04;4.87;;;1.65;;
61152;SDS011;47030;50.732;4.286;2022-07-18T08:31:31;3.80;;;1.75;;
61152;SDS011;47030;50.732;4.286;2022-07-18T08:33:56;2.83;;;1.80;;
61152;SDS011;47030;50.732;4.286;2022-07-18T08:36:22;4.10;;;1.87;;
61152;SDS011;47030;50.732;4.286;2022-07-18T08:38:49;3.70;;;1.83;;
61152;SDS011;47030;50.732;4.286;2022-07-18T08:41:16;2.78;;;1.75;;
61152;SDS011;47030;50.732;4.286;2022-07-18T08:43:43;1.73;;;1.35;;
61152;SDS011;47030;50.732;4.286;2022-07-18T08:46:10;3.83;;;1.50;;
61152;SDS011;47030;50.732;4.286;2022-07-18T08:48:37;4.87;;;1.90;;
61152;SDS011;47030;50.732;4.286;2022-07-18T08:51:07;2.78;;;1.25;;
61152;SDS011;47030;50.732;4.286;2022-07-18T08:53:34;2.92;;;1.42;;
61152;SDS011;47030;50.732;4.286;2022-07-18T08:56:02;1.98;;;1.30;;
61152;SDS011;47030;50.732;4.286;2022-07-18T08:58:28;8.27;;;2.53;;
61152;SDS011;47030;50.732;4.286;2022-07-18T09:00:54;7.18;;;2.22;;
61152;SDS011;47030;50.732;4.286;2022-07-18T09:03:23;2.42;;;1.52;;
61152;SDS011;47030;50.732;4.286;2022-07-18T09:06:11;8.63;;;1.48;;
61152;SDS011;47030;50.732;4.286;2022-07-18T09:08:41;4.85;;;1.40;;
61152;SDS011;47030;50.732;4.286;2022-07-18T09:11:23;2.10;;;1.50;;
61152;SDS011;47030;50.732;4.286;2022-07-18T09:13:50;2.03;;;1.37;;
61152;SDS011;47030;50.732;4.286;2022-07-18T09:16:15;3.95;;;1.40;;
61152;SDS011;47030;50.732;4.286;2022-07-18T09:18:43;3.97;;;1.52;;
61152;SDS011;47030;50.732;4.286;2022-07-18T09:21:11;2.53;;;1.30;;
61152;SDS011;47030;50.732;4.286;2022-07-18T09:23:43;3.05;;;1.20;;
61152;SDS011;47030;50.732;4.286;2022-07-18T09:26:11;2.62;;;1.37;;
61152;SDS011;47030;50.732;4.286;2022-07-18T09:28:50;5.25;;;1.48;;
61152;SDS011;47030;50.732;4.286;2022-07-18T09:31:18;1.62;;;1.12;;
61152;SDS011;47030;50.732;4.286;2022-07-18T09:33:53;4.30;;;1.30;;
61152;SDS011;47030;50.732;4.286;2022-07-18T09:36:23;2.05;;;1.27;;
61152;SDS011;47030;50.732;4.286;2022-07-18T09:38:50;2.95;;;1.50;;
61152;SDS011;47030;50.732;4.286;2022-07-18T09:41:16;2.45;;;1.58;;
61152;SDS011;47030;50.732;4.286;2022-07-18T09:43:50;5.93;;;1.50;;
61152;SDS011;47030;50.732;4.286;2022-07-18T09:46:16;2.95;;;1.70;;
61152;SDS011;47030;50.732;4.286;2022-07-18T09:48:41;3.10;;;1.40;;
61152;SDS011;47030;50.732;4.286;2022-07-18T09:51:07;2.90;;;1.30;;
61152;SDS011;47030;50.732;4.286;2022-07-18T09:53:43;1.67;;;1.15;;
61152;SDS011;47030;50.732;4.286;2022-07-18T09:56:11;2.58;;;1.50;;
61152;SDS011;47030;50.732;4.286;2022-07-18T09:58:59;4.12;;;1.40;;
61152;SDS011;47030;50.732;4.286;2022-07-18T10:01:25;2.25;;;1.40;;
61152;SDS011;47030;50.732;4.286;2022-07-18T10:03:52;1.62;;;1.10;;
61152;SDS011;47030;50.732;4.286;2022-07-18T10:06:18;2.30;;;1.30;;
61152;SDS011;47030;50.732;4.286;2022-07-18T10:08:45;2.90;;;1.33;;
61152;SDS011;47030;50.732;4.286;2022-07-18T10:11:11;2.72;;;1.50;;
61152;SDS011;47030;50.732;4.286;2022-07-18T10:13:37;4.60;;;1.30;;
61152;SDS011;47030;50.732;4.286;2022-07-18T10:16:04;2.20;;;1.30;;
61152;SDS011;47030;50.732;4.286;2022-07-18T10:18:31;1.35;;;1.10;;
61152;SDS011;47030;50.732;4.286;2022-07-18T10:28:33;2.85;;;1.30;;
61152;SDS011;47030;50.732;4.286;2022-07-18T10:31:12;2.62;;;1.10;;
61152;SDS011;47030;50.732;4.286;2022-07-18T10:36:08;3.70;;;1.20;;
61152;SDS011;47030;50.732;4.286;2022-07-18T10:38:36;1.55;;;1.12;;
61152;SDS011;47030;50.732;4.286;2022-07-18T10:41:06;1.87;;;1.27;;
61152;SDS011;47030;50.732;4.286;2022-07-18T10:43:35;1.50;;;1.20;;
61152;SDS011;47030;50.732;4.286;2022-07-18T10:46:03;2.22;;;1.30;;
61152;SDS011;47030;50.732;4.286;2022-07-18T10:51:08;1.35;;;1.05;;
61152;SDS011;47030;50.732;4.286;2022-07-18T10:57:04;2.67;;;1.50;;
61152;SDS011;47030;50.732;4.286;2022-07-18T10:59:17;1.83;;;1.30;;
61152;SDS011;47030;50.732;4.286;2022-07-18T11:01:52;2.67;;;1.10;;
61152;SDS011;47030;50.732;4.286;2022-07-18T11:04:22;3.00;;;1.40;;
61152;SDS011;47030;50.732;4.286;2022-07-18T11:06:54;1.95;;;1.37;;
61152;SDS011;47030;50.732;4.286;2022-07-18T11:09:43;4.53;;;1.98;;
61152;SDS011;47030;50.732;4.286;2022-07-18T11:12:19;3.22;;;1.33;;
61152;SDS011;47030;50.732;4.286;2022-07-18T11:20:23;4.18;;;1.52;;
61152;SDS011;47030;50.732;4.286;2022-07-18T11:23:19;4.37;;;1.55;;
61152;SDS011;47030;50.732;4.286;2022-07-18T11:25:51;3.17;;;1.25;;
61152;SDS011;47030;50.732;4.286;2022-07-18T11:28:21;2.00;;;1.37;;
61152;SDS011;47030;50.732;4.286;2022-07-18T11:31:02;3.40;;;1.10;;
61152;SDS011;47030;50.732;4.286;2022-07-18T11:36:06;3.75;;;1.48;;
61152;SDS011;47030;50.732;4.286;2022-07-18T11:38:38;3.25;;;1.40;;
61152;SDS011;47030;50.732;4.286;2022-07-18T11:41:05;1.65;;;1.30;;
61152;SDS011;47030;50.732;4.286;2022-07-18T11:43:31;5.28;;;1.70;;
61152;SDS011;47030;50.732;4.286;2022-07-18T11:48:30;1.40;;;1.10;;
61152;SDS011;47030;50.732;4.286;2022-07-18T11:50:58;4.55;;;1.60;;
61152;SDS011;47030;50.732;4.286;2022-07-18T11:53:25;2.28;;;1.50;;
61152;SDS011;47030;50.732;4.286;2022-07-18T11:55:52;3.05;;;1.90;;
61152;SDS011;47030;50.732;4.286;2022-07-18T11:58:19;3.17;;;1.45;;
61152;SDS011;47030;50.732;4.286;2022-07-18T12:00:45;3.05;;;1.35;;
61152;SDS011;47030;50.732;4.286;2022-07-18T12:05:46;4.25;;;1.52;;
61152;SDS011;47030;50.732;4.286;2022-07-18T12:11:14;3.20;;;1.50;;
61152;SDS011;47030;50.732;4.286;2022-07-18T12:13:55;7.82;;;1.70;;
61152;SDS011;47030;50.732;4.286;2022-07-18T12:19:09;2.33;;;1.52;;
61152;SDS011;47030;50.732;4.286;2022-07-18T12:21:45;4.45;;;1.77;;
61152;SDS011;47030;50.732;4.286;2022-07-18T12:30:03;5.50;;;1.70;;
61152;SDS011;47030;50.732;4.286;2022-07-18T12:32:43;2.00;;;1.48;;
61152;SDS011;47030;50.732;4.286;2022-07-18T12:37:37;2.70;;;1.67;;
61152;SDS011;47030;50.732;4.286;2022-07-18T12:40:08;2.53;;;1.60;;
61152;SDS011;47030;50.732;4.286;2022-07-18T12:42:40;4.82;;;1.50;;
61152;SDS011;47030;50.732;4.286;2022-07-18T12:45:10;2.87;;;1.35;;
61152;SDS011;47030;50.732;4.286;2022-07-18T12:47:37;2.65;;;1.58;;
61152;SDS011;47030;50.732;4.286;2022-07-18T12:50:04;4.28;;;1.70;;
61152;SDS011;47030;50.732;4.286;2022-07-18T12:52:31;1.95;;;1.30;;
61152;SDS011;47030;50.732;4.286;2022-07-18T12:54:57;4.05;;;1.58;;
61152;SDS011;47030;50.732;4.286;2022-07-18T12:57:24;5.05;;;1.55;;
61152;SDS011;47030;50.732;4.286;2022-07-18T12:59:51;5.62;;;1.95;;
61152;SDS011;47030;50.732;4.286;2022-07-18T13:02:17;2.10;;;1.50;;
61152;SDS011;47030;50.732;4.286;2022-07-18T13:04:44;4.15;;;1.67;;
61152;SDS011;47030;50.732;4.286;2022-07-18T13:07:10;1.87;;;1.42;;
61152;SDS011;47030;50.732;4.286;2022-07-18T13:09:36;5.75;;;1.60;;
61152;SDS011;47030;50.732;4.286;2022-07-18T13:12:03;5.43;;;1.87;;
61152;SDS011;47030;50.732;4.286;2022-07-18T13:14:30;3.15;;;1.33;;
61152;SDS011;47030;50.732;4.286;2022-07-18T13:16:55;3.25;;;1.48;;
61152;SDS011;47030;50.732;4.286;2022-07-18T13:19:21;4.15;;;1.77;;
61152;SDS011;47030;50.732;4.286;2022-07-18T13:21:47;4.85;;;1.70;;
61152;SDS011;47030;50.732;4.286;2022-07-18T13:24:13;2.90;;;1.70;;
61152;SDS011;47030;50.732;4.286;2022-07-18T13:26:40;4.20;;;1.80;;
61152;SDS011;47030;50.732;4.286;2022-07-18T13:29:06;2.67;;;1.60;;
61152;SDS011;47030;50.732;4.286;2022-07-18T13:31:32;4.72;;;2.22;;
61152;SDS011;47030;50.732;4.286;2022-07-18T13:33:59;2.22;;;1.42;;
61152;SDS011;47030;50.732;4.286;2022-07-18T13:36:25;1.52;;;1.30;;
61152;SDS011;47030;50.732;4.286;2022-07-18T13:38:51;4.12;;;1.48;;
61152;SDS011;47030;50.732;4.286;2022-07-18T13:41:17;2.83;;;1.73;;
61152;SDS011;47030;50.732;4.286;2022-07-18T13:43:42;2.83;;;1.48;;
61152;SDS011;47030;50.732;4.286;2022-07-18T13:46:10;3.55;;;1.73;;
61152;SDS011;47030;50.732;4.286;2022-07-18T13:48:37;4.35;;;1.30;;
61152;SDS011;47030;50.732;4.286;2022-07-18T13:51:03;2.45;;;1.60;;
61152;SDS011;47030;50.732;4.286;2022-07-18T13:53:30;3.20;;;1.45;;
61152;SDS011;47030;50.732;4.286;2022-07-18T13:55:56;5.45;;;1.83;;
61152;SDS011;47030;50.732;4.286;2022-07-18T13:58:22;2.70;;;1.60;;
61152;SDS011;47030;50.732;4.286;2022-07-18T14:00:48;2.60;;;1.52;;
61152;SDS011;47030;50.732;4.286;2022-07-18T14:03:14;2.12;;;1.52;;
61152;SDS011;47030;50.732;4.286;2022-07-18T14:05:40;4.18;;;1.67;;
61152;SDS011;47030;50.732;4.286;2022-07-18T14:08:06;5.97;;;1.75;;
61152;SDS011;47030;50.732;4.286;2022-07-18T14:10:33;2.28;;;1.52;;
61152;SDS011;47030;50.732;4.286;2022-07-18T14:12:59;3.65;;;1.52;;
61152;SDS011;47030;50.732;4.286;2022-07-18T14:15:25;2.65;;;1.50;;
61152;SDS011;47030;50.732;4.286;2022-07-18T14:17:51;2.05;;;1.45;;
61152;SDS011;47030;50.732;4.286;2022-07-18T14:20:16;3.60;;;1.65;;
61152;SDS011;47030;50.732;4.286;2022-07-18T14:22:43;2.37;;;1.40;;
61152;SDS011;47030;50.732;4.286;2022-07-18T14:25:11;3.97;;;1.50;;
61152;SDS011;47030;50.732;4.286;2022-07-18T14:27:38;2.58;;;1.50;;
61152;SDS011;47030;50.732;4.286;2022-07-18T14:30:05;4.62;;;1.40;;
61152;SDS011;47030;50.732;4.286;2022-07-18T14:32:32;1.80;;;1.50;;
61152;SDS011;47030;50.732;4.286;2022-07-18T14:34:58;2.35;;;1.40;;
61152;SDS011;47030;50.732;4.286;2022-07-18T14:37:24;3.05;;;1.37;;
61152;SDS011;47030;50.732;4.286;2022-07-18T14:39:50;3.22;;;1.50;;
61152;SDS011;47030;50.732;4.286;2022-07-18T14:42:15;3.75;;;1.30;;
61152;SDS011;47030;50.732;4.286;2022-07-18T14:44:41;2.03;;;1.20;;
61152;SDS011;47030;50.732;4.286;2022-07-18T14:47:07;4.57;;;1.67;;
61152;SDS011;47030;50.732;4.286;2022-07-18T14:49:33;1.92;;;1.55;;
61152;SDS011;47030;50.732;4.286;2022-07-18T14:51:59;4.93;;;1.45;;
61152;SDS011;47030;50.732;4.286;2022-07-18T14:54:26;2.40;;;1.42;;
61152;SDS011;47030;50.732;4.286;2022-07-18T14:56:53;2.08;;;1.50;;
61152;SDS011;47030;50.732;4.286;2022-07-18T14:59:19;1.90;;;1.60;;
61152;SDS011;47030;50.732;4.286;2022-07-18T15:01:46;2.55;;;1.48;;
61152;SDS011;47030;50.732;4.286;2022-07-18T15:04:12;2.08;;;1.42;;
61152;SDS011;47030;50.732;4.286;2022-07-18T15:06:38;3.70;;;1.58;;
61152;SDS011;47030;50.732;4.286;2022-07-18T15:09:05;3.55;;;1.42;;
61152;SDS011;47030;50.732;4.286;2022-07-18T15:11:33;4.47;;;1.42;;
61152;SDS011;47030;50.732;4.286;2022-07-18T15:14:00;2.85;;;1.37;;
61152;SDS011;47030;50.732;4.286;2022-07-18T15:16:26;2.55;;;1.40;;
61152;SDS011;47030;50.732;4.286;2022-07-18T15:18:52;1.40;;;1.30;;
61152;SDS011;47030;50.732;4.286;2022-07-18T15:21:17;1.65;;;1.25;;
61152;SDS011;47030;50.732;4.286;2022-07-18T15:23:43;1.92;;;1.20;;
61152;SDS011;47030;50.732;4.286;2022-07-18T15:26:11;2.12;;;1.48;;
61152;SDS011;47030;50.732;4.286;2022-07-18T15:28:37;3.62;;;1.77;;
61152;SDS011;47030;50.732;4.286;2022-07-18T15:31:03;2.58;;;1.50;;